Time;durP1;ratioP1;P1;durP2;ratioP2;P2;SDS_P1;SDS_P2;PMS_P1;PMS_P2;Temp;Humidity;BMP_temperature;BMP_pressure;BME280_temperature;BME280_humidity;BME280_pressure;Samples;Min_cycle;Max_cycle;Signal;HPM_P1;HPM_P2
2020/12/13 00:02:19;;;;;;;20.80;14.20;;;;;;;8.90;100.00;98402.19;5074372;28;20205;-68
2020/12/13 00:04:46;;;;;;;13.55;7.05;;;;;;;8.83;100.00;98411.66;5073842;28;20201;-67
2020/12/13 00:07:12;;;;;;;9.30;6.95;;;;;;;8.82;100.00;98412.59;5073982;28;20199;-67
2020/12/13 00:09:40;;;;;;;11.88;6.57;;;;;;;8.91;100.00;98414.63;5074021;28;20623;-66
2020/12/13 00:12:07;;;;;;;9.10;7.65;;;;;;;8.89;100.00;98411.22;5073088;28;20280;-67
2020/12/13 00:14:34;;;;;;;9.32;6.95;;;;;;;8.89;100.00;98416.59;5073605;28;20236;-68
2020/12/13 00:17:01;;;;;;;10.10;7.90;;;;;;;8.78;100.00;98417.34;5073684;28;20225;-67
2020/12/13 00:19:28;;;;;;;10.13;6.60;;;;;;;8.91;100.00;98426.25;5073673;28;20204;-66
2020/12/13 00:21:57;;;;;;;9.70;6.90;;;;;;;8.94;100.00;98426.03;5074037;28;20539;-67
2020/12/13 00:24:23;;;;;;;12.93;7.00;;;;;;;8.88;100.00;98425.59;5073528;28;20321;-66
2020/12/13 00:26:51;;;;;;;16.38;9.88;;;;;;;8.79;100.00;98426.25;5073849;28;20324;-66
2020/12/13 00:29:17;;;;;;;8.68;7.30;;;;;;;8.88;100.00;98422.91;5077060;28;20201;-67
2020/12/13 00:31:44;;;;;;;8.95;6.10;;;;;;;8.84;100.00;98433.03;5073051;28;20203;-67
2020/12/13 00:34:10;;;;;;;10.45;5.65;;;;;;;8.69;100.00;98429.56;5073455;28;20261;-68
2020/12/13 00:36:37;;;;;;;10.18;6.95;;;;;;;8.67;100.00;98436.88;5073552;28;20276;-68
2020/12/13 00:39:04;;;;;;;8.43;6.20;;;;;;;8.63;100.00;98438.03;5073167;28;20276;-68
2020/12/13 00:41:30;;;;;;;10.27;6.47;;;;;;;8.62;100.00;98443.53;5073329;28;20232;-67
2020/12/13 00:43:57;;;;;;;11.68;7.82;;;;;;;8.62;100.00;98443.53;5073119;28;20191;-67
2020/12/13 00:46:24;;;;;;;10.75;6.80;;;;;;;8.56;100.00;98445.63;5072926;28;20200;-66
2020/12/13 00:48:51;;;;;;;12.82;7.95;;;;;;;8.51;100.00;98438.88;5072218;28;20200;-67
2020/12/13 00:51:22;;;;;;;9.35;7.10;;;;;;;8.59;100.00;98435.66;5073442;28;20573;-68
2020/12/13 00:53:49;;;;;;;11.70;7.35;;;;;;;8.58;100.00;98436.66;5072983;28;20192;-68
2020/12/13 00:56:15;;;;;;;14.52;7.10;;;;;;;8.59;100.00;98439.19;5072978;28;20207;-66
2020/12/13 00:58:42;;;;;;;8.30;7.30;;;;;;;8.63;100.00;98435.34;5073411;28;20598;-68
2020/12/13 01:01:09;;;;;;;9.45;6.90;;;;;;;8.61;100.00;98434.59;5072640;28;20958;-67
2020/12/13 01:03:35;;;;;;;8.60;7.15;;;;;;;8.63;100.00;98447.91;5072862;28;20273;-68
2020/12/13 01:06:01;;;;;;;9.00;6.55;;;;;;;8.62;100.00;98448.88;5073519;28;20300;-67
2020/12/13 01:08:28;;;;;;;9.77;6.72;;;;;;;8.62;100.00;98448.88;5073127;28;20287;-68
2020/12/13 01:10:54;;;;;;;10.50;7.07;;;;;;;8.54;100.00;98452.06;5073026;28;20692;-66
2020/12/13 01:13:20;;;;;;;9.60;6.55;;;;;;;8.58;100.00;98458.97;5073255;28;20554;-67
2020/12/13 01:15:48;;;;;;;10.25;6.00;;;;;;;8.54;100.00;98455.63;5073001;28;20702;-67
2020/12/13 01:18:15;;;;;;;11.60;6.68;;;;;;;8.63;100.00;98461.31;5072488;28;20224;-68
2020/12/13 01:20:41;;;;;;;8.90;7.55;;;;;;;8.64;100.00;98468.41;5072747;28;20203;-68
2020/12/13 01:23:08;;;;;;;12.43;8.13;;;;;;;8.67;100.00;98474.44;5072608;28;20530;-68
2020/12/13 01:25:34;;;;;;;13.88;7.47;;;;;;;8.80;100.00;98490.56;5072308;28;20196;-68
2020/12/13 01:28:00;;;;;;;8.27;6.40;;;;;;;8.80;100.00;98485.19;5072686;28;20628;-68
2020/12/13 01:30:27;;;;;;;16.25;11.43;;;;;;;8.75;100.00;98484.63;5072043;28;20205;-68
2020/12/13 01:32:53;;;;;;;9.65;7.13;;;;;;;8.75;100.00;98495.34;5071986;28;20193;-68
2020/12/13 01:35:25;;;;;;;11.77;7.57;;;;;;;8.73;100.00;98506.22;5072569;28;20200;-67
2020/12/13 01:37:51;;;;;;;9.88;5.68;;;;;;;8.59;100.00;98500.91;5072332;28;20223;-67
2020/12/13 01:40:18;;;;;;;13.05;7.45;;;;;;;8.55;100.00;98516.38;5072201;28;20686;-67
2020/12/13 01:42:44;;;;;;;9.43;7.60;;;;;;;8.60;100.00;98524.13;5072380;28;20203;-68
2020/12/13 01:45:18;;;;;;;24.17;19.25;;;;;;;8.64;100.00;98517.59;5071902;28;20203;-68
2020/12/13 01:47:44;;;;;;;13.93;9.68;;;;;;;8.72;100.00;98525.97;5071457;28;20185;-68
2020/12/13 01:50:16;;;;;;;12.80;8.43;;;;;;;8.62;100.00;98522.19;5076998;28;20196;-67
2020/12/13 01:52:47;;;;;;;19.35;13.07;;;;;;;8.55;100.00;98520.88;5076933;28;20638;-68
2020/12/13 01:55:17;;;;;;;10.80;7.20;;;;;;;8.45;100.00;98517.94;5072008;28;20212;-67
2020/12/13 01:57:47;;;;;;;12.45;8.32;;;;;;;8.45;100.00;98528.66;5072328;28;20681;-67
2020/12/13 02:00:16;;;;;;;9.60;7.22;;;;;;;8.40;100.00;98527.22;5071807;28;20236;-68
2020/12/13 02:02:45;;;;;;;12.32;7.47;;;;;;;8.43;100.00;98535.09;5072172;28;20204;-68
2020/12/13 02:05:14;;;;;;;11.23;8.02;;;;;;;8.47;100.00;98537.47;5072259;28;20542;-67
2020/12/13 02:07:42;;;;;;;10.50;7.72;;;;;;;8.50;100.00;98544.44;5072334;28;20642;-67
2020/12/13 02:10:10;;;;;;;12.25;8.18;;;;;;;8.54;100.00;98544.16;5071931;28;20197;-67
2020/12/13 02:12:38;;;;;;;11.40;9.40;;;;;;;8.56;100.00;98544.91;5071690;28;20187;-67
2020/12/13 02:15:05;;;;;;;12.10;7.43;;;;;;;8.49;100.00;98546.28;5072134;28;20503;-66
2020/12/13 02:17:34;;;;;;;12.38;8.77;;;;;;;8.51;100.00;98552.41;5072085;28;20307;-67
2020/12/13 02:20:04;;;;;;;12.82;8.13;;;;;;;8.37;100.00;98560.47;5081663;28;20275;-68
2020/12/13 02:22:31;;;;;;;11.32;8.55;;;;;;;8.39;100.00;98569.28;5090755;28;20272;-67
2020/12/13 02:25:08;;;;;;;11.10;7.22;;;;;;;8.28;100.00;98570.00;5091900;28;20231;-67
2020/12/13 02:27:34;;;;;;;10.05;6.85;;;;;;;8.26;100.00;98565.69;5092222;28;20302;-68
2020/12/13 02:30:00;;;;;;;10.00;8.20;;;;;;;8.35;100.00;98573.13;5091977;28;20242;-68
2020/12/13 02:32:27;;;;;;;12.48;8.80;;;;;;;8.40;100.00;98584.44;5083684;28;20196;-68
2020/12/13 02:34:53;;;;;;;11.40;7.72;;;;;;;8.30;100.00;98580.63;5071561;28;20215;-67
2020/12/13 02:37:19;;;;;;;11.02;6.95;;;;;;;8.36;100.00;98578.38;5071840;28;20220;-67
2020/12/13 02:39:46;;;;;;;11.10;7.10;;;;;;;8.26;100.00;98588.00;5071784;28;20608;-67
2020/12/13 02:42:12;;;;;;;10.75;7.60;;;;;;;8.20;100.00;98595.56;5071551;28;20285;-67
2020/12/13 02:44:38;;;;;;;9.55;6.43;;;;;;;8.19;100.00;98604.59;5071676;28;20200;-68
2020/12/13 02:47:05;;;;;;;13.35;6.95;;;;;;;8.24;100.00;98603.31;5071211;28;20204;-67
2020/12/13 02:49:31;;;;;;;9.35;7.80;;;;;;;8.28;100.00;98607.53;5071492;28;20223;-67
2020/12/13 02:51:57;;;;;;;10.48;7.35;;;;;;;8.26;100.00;98609.44;5071546;28;20256;-67
2020/12/13 02:54:23;;;;;;;9.23;7.40;;;;;;;8.28;100.00;98606.69;5072053;28;20587;-67
2020/12/13 02:56:50;;;;;;;11.43;7.53;;;;;;;8.36;100.00;98597.16;5090062;28;20203;-67
2020/12/13 02:59:17;;;;;;;10.52;8.40;;;;;;;8.43;100.00;98599.47;5091852;28;20322;-67
2020/12/13 03:01:43;;;;;;;12.07;8.30;;;;;;;8.43;100.00;98604.84;5055037;28;20197;-67
2020/12/13 03:04:09;;;;;;;10.63;8.15;;;;;;;8.31;100.00;98604.66;5073798;28;20674;-67
2020/12/13 03:06:36;;;;;;;16.45;10.32;;;;;;;8.28;100.00;98614.72;5075028;28;20197;-68
2020/12/13 03:09:02;;;;;;;13.40;9.10;;;;;;;8.33;100.00;98615.28;5075305;28;20192;-68
2020/12/13 03:11:28;;;;;;;13.05;9.38;;;;;;;8.24;100.00;98610.50;5075335;28;20185;-68
2020/12/13 03:13:56;;;;;;;13.25;9.15;;;;;;;8.27;100.00;98613.84;5086254;28;20555;-67
2020/12/13 03:16:22;;;;;;;16.98;9.82;;;;;;;8.24;100.00;98621.25;5094978;28;20220;-68
2020/12/13 03:18:48;;;;;;;12.98;9.85;;;;;;;8.12;100.00;98622.91;5095091;28;20224;-67
2020/12/13 03:21:14;;;;;;;13.95;9.65;;;;;;;8.13;100.00;98621.91;5094336;28;20224;-67
2020/12/13 03:23:40;;;;;;;16.10;10.38;;;;;;;8.28;100.00;98629.00;5094667;28;20180;-67
2020/12/13 03:26:07;;;;;;;14.02;10.68;;;;;;;8.33;100.00;98628.69;5095498;28;20625;-66
2020/12/13 03:28:33;;;;;;;13.10;9.65;;;;;;;8.26;100.00;98633.59;5094632;28;20294;-67
2020/12/13 03:31:00;;;;;;;22.25;17.70;;;;;;;8.28;100.00;98634.34;5095165;28;20188;-67
2020/12/13 03:33:26;;;;;;;16.52;10.30;;;;;;;8.34;100.00;98638.44;5087143;28;20215;-67
2020/12/13 03:35:53;;;;;;;22.77;14.45;;;;;;;8.33;100.00;98631.38;5074581;28;20201;-67
2020/12/13 03:38:19;;;;;;;14.27;9.00;;;;;;;8.29;100.00;98630.69;5074436;28;20246;-67
2020/12/13 03:40:45;;;;;;;12.80;9.05;;;;;;;8.28;100.00;98649.59;5074836;28;20208;-67
2020/12/13 03:43:11;;;;;;;13.70;9.25;;;;;;;8.25;100.00;98647.94;5074413;28;20200;-66
2020/12/13 03:45:38;;;;;;;10.23;7.95;;;;;;;8.17;100.00;98638.69;5074652;28;20213;-67
2020/12/13 03:48:05;;;;;;;13.82;9.25;;;;;;;8.28;100.00;98654.97;5074844;28;20962;-66
2020/12/13 03:50:38;;;;;;;16.52;10.02;;;;;;;8.29;100.00;98653.97;5074424;28;20218;-67
2020/12/13 03:53:09;;;;;;;13.45;9.23;;;;;;;8.26;100.00;98652.34;5074670;28;20621;-67
2020/12/13 03:55:35;;;;;;;11.18;8.23;;;;;;;8.26;100.00;98663.09;5074529;28;20212;-67
2020/12/13 03:58:01;;;;;;;12.10;8.48;;;;;;;8.24;100.00;98656.09;5073973;28;20224;-67
2020/12/13 04:00:28;;;;;;;11.50;8.38;;;;;;;8.23;100.00;98659.72;5074220;28;20267;-67
2020/12/13 04:02:55;;;;;;;16.67;10.65;;;;;;;8.33;100.00;98658.19;5073849;28;20193;-68
2020/12/13 04:05:24;;;;;;;11.70;8.25;;;;;;;8.25;100.00;98649.75;5073892;28;20307;-67
2020/12/13 04:07:51;;;;;;;11.88;8.60;;;;;;;8.30;100.00;98663.75;5073870;28;20199;-67
2020/12/13 04:10:18;;;;;;;9.82;7.15;;;;;;;8.22;100.00;98666.91;5073369;28;20287;-67
2020/12/13 04:12:44;;;;;;;14.32;8.93;;;;;;;8.20;100.00;98659.94;5073721;28;20193;-67
2020/12/13 04:15:11;;;;;;;14.32;8.88;;;;;;;8.25;100.00;98673.91;5074348;28;20177;-67
2020/12/13 04:17:38;;;;;;;11.73;8.60;;;;;;;8.22;100.00;98674.09;5073766;28;20273;-67
2020/12/13 04:20:05;;;;;;;9.15;7.38;;;;;;;8.22;100.00;98674.97;5074040;28;20270;-67
2020/12/13 04:22:32;;;;;;;11.52;7.55;;;;;;;8.21;100.00;98675.03;5073727;28;20246;-67
2020/12/13 04:24:58;;;;;;;12.55;8.40;;;;;;;8.28;100.00;98685.31;5073319;28;20216;-67
2020/12/13 04:27:25;;;;;;;12.30;7.78;;;;;;;8.28;100.00;98679.09;5073506;28;20283;-67
2020/12/13 04:29:51;;;;;;;16.00;9.13;;;;;;;8.29;100.00;98691.53;5075654;28;20197;-67
2020/12/13 04:32:17;;;;;;;13.25;8.65;;;;;;;8.25;100.00;98698.03;5090896;28;20200;-67
2020/12/13 04:34:44;;;;;;;11.38;8.30;;;;;;;8.30;100.00;98694.13;5073969;28;20205;-67
2020/12/13 04:37:10;;;;;;;10.40;7.45;;;;;;;8.36;99.11;98693.72;5073190;28;20277;-66
2020/12/13 04:39:37;;;;;;;11.98;7.68;;;;;;;8.38;99.09;98701.66;5073250;28;20203;-66
2020/12/13 04:42:05;;;;;;;10.90;7.45;;;;;;;8.40;99.35;98705.16;5073860;28;20238;-67
2020/12/13 04:44:32;;;;;;;10.75;6.90;;;;;;;8.46;98.52;98710.13;5073103;28;20262;-67
2020/12/13 04:47:05;;;;;;;9.95;6.90;;;;;;;8.46;98.40;98720.00;5073395;28;20201;-67
2020/12/13 04:49:33;;;;;;;10.40;7.45;;;;;;;8.54;97.67;98707.81;5073530;28;20561;-67
2020/12/13 04:52:00;;;;;;;8.65;6.35;;;;;;;8.50;96.83;98713.47;5073401;28;20714;-67
2020/12/13 04:54:27;;;;;;;11.88;7.72;;;;;;;8.37;97.79;98713.38;5072872;28;20176;-67
2020/12/13 04:56:57;;;;;;;11.63;7.28;;;;;;;8.30;98.33;98720.09;5073036;28;20296;-67
2020/12/13 04:59:25;;;;;;;10.80;7.30;;;;;;;8.32;98.65;98732.44;5072811;28;20224;-67
2020/12/13 05:02:07;;;;;;;10.25;7.78;;;;;;;8.30;98.88;98720.94;5073347;28;20192;-67
2020/12/13 05:04:33;;;;;;;8.10;6.50;;;;;;;8.38;98.04;98724.97;5010697;28;20580;-67
2020/12/13 05:06:59;;;;;;;16.65;8.50;;;;;;;8.46;97.14;98734.28;5011535;28;20249;-67
2020/12/13 05:09:26;;;;;;;14.15;8.15;;;;;;;8.43;97.26;98739.81;5011013;28;20198;-67
2020/12/13 05:11:52;;;;;;;8.85;7.43;;;;;;;8.41;97.32;98738.19;5011344;28;20206;-67
2020/12/13 05:14:19;;;;;;;10.38;7.57;;;;;;;8.28;98.15;98735.41;5010873;28;20257;-67
2020/12/13 05:16:45;;;;;;;11.50;7.65;;;;;;;8.30;98.24;98745.06;5010945;28;20277;-67
2020/12/13 05:19:12;;;;;;;12.38;7.38;;;;;;;8.26;98.21;98740.84;5011252;28;20293;-67
2020/12/13 05:21:39;;;;;;;12.07;7.82;;;;;;;8.33;98.11;98742.19;5030359;28;20241;-67
2020/12/13 05:24:06;;;;;;;9.50;7.10;;;;;;;8.28;97.80;98747.00;5030014;28;20277;-67
2020/12/13 05:26:33;;;;;;;13.38;7.63;;;;;;;8.25;97.96;98741.78;5030504;28;20586;-67
2020/12/13 05:29:03;;;;;;;10.13;7.53;;;;;;;8.30;98.06;98760.31;5030443;28;20645;-67
2020/12/13 05:31:32;;;;;;;7.95;6.80;;;;;;;8.26;98.70;98761.47;5030830;28;20258;-67
2020/12/13 05:34:01;;;;;;;8.85;6.70;;;;;;;8.36;98.37;98758.09;5023268;28;20230;-67
2020/12/13 05:36:28;;;;;;;9.95;6.78;;;;;;;8.40;97.41;98758.81;5010570;28;20209;-67
2020/12/13 05:38:57;;;;;;;12.23;6.90;;;;;;;8.50;96.86;98768.00;5010634;28;20239;-67
2020/12/13 05:41:29;;;;;;;10.75;7.63;;;;;;;8.56;95.44;98764.91;5035240;28;20208;-67
2020/12/13 05:44:03;;;;;;;10.55;7.47;;;;;;;8.48;96.14;98769.94;5072769;28;20180;-66
2020/12/13 05:46:49;;;;;;;12.10;6.68;;;;;;;8.33;95.98;98773.53;5072694;28;20187;-67
2020/12/13 05:49:28;;;;;;;10.57;6.40;;;;;;;8.35;96.79;98779.66;5072130;28;20272;-67
2020/12/13 05:51:55;;;;;;;8.63;5.38;;;;;;;8.54;94.14;98784.75;5091348;28;20233;-67
2020/12/13 05:54:23;;;;;;;8.80;5.97;;;;;;;8.53;94.03;98785.72;5092540;28;20211;-67
2020/12/13 05:56:52;;;;;;;6.65;5.28;;;;;;;8.66;92.58;98793.84;5091933;28;20202;-67
2020/12/13 05:59:19;;;;;;;8.23;5.57;;;;;;;8.65;92.99;98792.16;5091847;28;20228;-67
2020/12/13 06:01:48;;;;;;;6.80;4.85;;;;;;;8.61;92.27;98796.81;5092298;28;20192;-67
2020/12/13 06:04:30;;;;;;;12.70;5.22;;;;;;;8.36;93.99;98800.16;5087491;28;20200;-67
2020/12/13 06:06:57;;;;;;;7.28;5.05;;;;;;;8.43;93.29;98798.84;5010587;28;20617;-66
2020/12/13 06:09:33;;;;;;;5.40;4.72;;;;;;;8.33;93.87;98803.03;5009928;28;20293;-67
2020/12/13 06:12:02;;;;;;;6.07;4.95;;;;;;;8.40;94.42;98806.19;5010434;28;20221;-67
2020/12/13 06:14:28;;;;;;;6.97;4.75;;;;;;;8.36;93.81;98809.03;5010413;28;20543;-66
2020/12/13 06:16:57;;;;;;;11.30;5.15;;;;;;;8.41;94.20;98810.63;5009969;28;20203;-67
2020/12/13 06:19:25;;;;;;;12.23;5.15;;;;;;;8.37;94.37;98812.63;5010178;28;20238;-67
2020/12/13 06:21:55;;;;;;;6.05;4.97;;;;;;;8.29;95.24;98821.13;5011181;28;20282;-68
2020/12/13 06:24:22;;;;;;;10.10;5.50;;;;;;;8.42;94.29;98813.22;5009882;28;20293;-67
2020/12/13 06:26:49;;;;;;;6.72;4.88;;;;;;;8.40;94.55;98823.19;5010064;28;20280;-67
2020/12/13 06:29:15;;;;;;;6.10;5.10;;;;;;;8.57;92.91;98827.53;5010073;28;20536;-67
2020/12/13 06:31:42;;;;;;;6.55;5.50;;;;;;;8.47;93.50;98819.16;5010035;28;20289;-66
2020/12/13 06:34:09;;;;;;;8.52;5.90;;;;;;;8.46;93.93;98824.63;5011427;28;20198;-67
2020/12/13 06:36:37;;;;;;;7.70;5.22;;;;;;;8.33;94.50;98833.38;5013274;28;20249;-67
2020/12/13 06:39:11;;;;;;;13.27;5.82;;;;;;;8.32;95.72;98839.72;5013859;28;20316;-67
2020/12/13 06:41:39;;;;;;;9.10;5.82;;;;;;;8.29;95.39;98847.09;5013856;28;20257;-67
2020/12/13 06:44:06;;;;;;;12.95;5.95;;;;;;;8.37;95.21;98850.16;5046629;28;20291;-67
2020/12/13 06:46:40;;;;;;;7.55;5.60;;;;;;;8.44;95.13;98850.69;5079572;28;20184;-67
2020/12/13 06:49:07;;;;;;;10.60;5.55;;;;;;;8.47;94.41;98853.19;5096304;28;20184;-67
2020/12/13 06:51:35;;;;;;;13.40;6.78;;;;;;;8.46;94.79;98856.84;5095605;28;20211;-67
2020/12/13 06:54:03;;;;;;;9.73;6.95;;;;;;;8.46;95.52;98860.38;5095657;28;20239;-67
2020/12/13 06:56:30;;;;;;;8.25;6.35;;;;;;;8.24;95.89;98863.44;5095679;28;20670;-67
2020/12/13 06:58:59;;;;;;;10.27;5.82;;;;;;;8.44;95.47;98870.34;5095203;28;20227;-67
2020/12/13 07:01:27;;;;;;;7.53;6.38;;;;;;;8.54;94.31;98868.78;5095676;28;20595;-68
2020/12/13 07:03:56;;;;;;;8.85;6.18;;;;;;;8.45;95.18;98871.19;5078881;28;20200;-66
2020/12/13 07:06:24;;;;;;;9.77;6.30;;;;;;;8.54;93.57;98873.31;5074939;28;20185;-66
2020/12/13 07:08:58;;;;;;;11.48;7.00;;;;;;;8.48;94.21;98866.50;5075224;28;20289;-67
2020/12/13 07:11:27;;;;;;;8.18;5.75;;;;;;;8.43;94.97;98875.78;5075599;28;20258;-67
2020/12/13 07:14:04;;;;;;;7.22;6.28;;;;;;;8.45;94.40;98874.72;5075140;28;20193;-67
2020/12/13 07:16:35;;;;;;;10.20;7.35;;;;;;;8.58;94.61;98880.22;5076170;28;20635;-67
2020/12/13 07:19:09;;;;;;;11.65;7.05;;;;;;;8.63;93.33;98888.84;5054765;28;20217;-67
2020/12/13 07:21:37;;;;;;;12.45;6.60;;;;;;;8.58;93.41;98884.72;5056534;28;20197;-67
2020/12/13 07:24:06;;;;;;;8.93;6.30;;;;;;;8.56;94.01;98888.34;5085257;28;20201;-67
2020/12/13 07:26:36;;;;;;;9.63;6.18;;;;;;;8.50;94.19;98898.59;5073950;28;20189;-67
2020/12/13 07:29:05;;;;;;;13.57;6.80;;;;;;;8.51;94.22;98889.59;5074614;28;20557;-66
2020/12/13 07:31:36;;;;;;;8.98;6.90;;;;;;;8.45;94.86;98895.31;5074580;28;20606;-67
2020/12/13 07:34:03;;;;;;;12.52;7.50;;;;;;;8.66;93.68;98898.50;5074158;28;20201;-67
2020/12/13 07:36:30;;;;;;;11.73;7.10;;;;;;;8.62;93.45;98897.84;5072318;28;20202;-66
2020/12/13 07:38:56;;;;;;;11.77;7.10;;;;;;;8.63;93.53;98902.25;5074429;28;20228;-67
2020/12/13 07:41:25;;;;;;;12.65;6.47;;;;;;;8.60;93.39;98896.22;5074232;28;20236;-67
2020/12/13 07:43:57;;;;;;;10.10;6.78;;;;;;;8.75;92.82;98906.00;5074194;28;20251;-67
2020/12/13 07:46:24;;;;;;;12.70;8.15;;;;;;;8.64;93.27;98913.84;5053488;28;20306;-67
2020/12/13 07:49:03;;;;;;;12.23;6.45;;;;;;;8.76;92.77;98905.91;5054195;28;20387;-67
2020/12/13 07:51:31;;;;;;;8.63;6.35;;;;;;;8.65;92.48;98916.44;5055986;28;20182;-66
2020/12/13 07:53:57;;;;;;;13.07;6.95;;;;;;;8.67;92.83;98919.91;5070486;28;20242;-67
2020/12/13 07:56:26;;;;;;;11.20;6.40;;;;;;;8.66;93.01;98919.97;5074378;28;20228;-67
2020/12/13 07:59:06;;;;;;;9.73;8.05;;;;;;;8.48;93.71;98925.53;5073667;28;20230;-67
2020/12/13 08:01:33;;;;;;;11.65;7.63;;;;;;;8.59;93.00;98924.00;5074260;28;20613;-67
2020/12/13 08:03:59;;;;;;;10.13;7.65;;;;;;;8.52;92.89;98932.44;5073647;28;20220;-67
2020/12/13 08:06:26;;;;;;;10.98;7.57;;;;;;;8.52;93.77;98921.72;5074114;28;20540;-67
2020/12/13 08:08:53;;;;;;;10.90;8.68;;;;;;;8.50;94.09;98928.09;5074228;28;20196;-67
2020/12/13 08:11:19;;;;;;;18.50;8.05;;;;;;;8.45;93.79;98939.13;5073832;28;20211;-67
2020/12/13 08:13:48;;;;;;;8.88;7.45;;;;;;;8.54;92.82;98938.56;5074114;28;20637;-67
2020/12/13 08:16:15;;;;;;;12.27;7.55;;;;;;;8.46;94.35;98942.69;5073601;28;20200;-67
2020/12/13 08:18:45;;;;;;;15.85;8.15;;;;;;;8.45;94.00;98936.44;5053584;28;20225;-67
2020/12/13 08:21:15;;;;;;;15.00;8.10;;;;;;;8.38;93.78;98939.53;5053914;28;20368;-67
2020/12/13 08:23:42;;;;;;;20.02;8.10;;;;;;;8.32;93.80;98947.00;5053511;28;20212;-67
2020/12/13 08:26:09;;;;;;;21.90;8.90;;;;;;;8.46;92.71;98935.50;5067869;28;20281;-67
2020/12/13 08:28:38;;;;;;;16.50;8.85;;;;;;;8.38;92.71;98950.28;5083022;28;20255;-67
2020/12/13 08:31:11;;;;;;;11.35;7.90;;;;;;;8.50;90.98;98949.56;5083649;28;20569;-67
2020/12/13 08:33:38;;;;;;;15.25;7.75;;;;;;;8.42;91.92;98954.53;5077272;28;20207;-66
2020/12/13 08:36:17;;;;;;;12.15;7.38;;;;;;;8.50;90.68;98961.19;5073262;28;20200;-66
2020/12/13 08:38:43;;;;;;;15.43;9.65;;;;;;;8.45;91.24;98963.25;5073748;28;20674;-67
2020/12/13 08:41:12;;;;;;;18.88;9.50;;;;;;;8.61;90.78;98973.06;5073405;28;20292;-67
2020/12/13 08:43:39;;;;;;;13.35;7.28;;;;;;;8.61;89.29;98968.56;5073466;28;20319;-67
2020/12/13 08:46:06;;;;;;;17.52;10.13;;;;;;;8.50;89.59;98963.88;5072881;28;20196;-67
2020/12/13 08:48:32;;;;;;;15.45;8.63;;;;;;;8.64;89.77;98978.25;5073095;28;20205;-67
2020/12/13 08:51:07;;;;;;;16.27;8.45;;;;;;;8.48;89.57;98981.00;5073697;28;20303;-67
2020/12/13 08:53:33;;;;;;;16.45;7.53;;;;;;;8.30;91.27;98980.25;5073016;28;20227;-67
2020/12/13 08:56:03;;;;;;;13.70;7.45;;;;;;;8.38;90.94;98982.47;5080716;28;20234;-67
2020/12/13 08:58:29;;;;;;;10.25;6.97;;;;;;;8.38;90.35;98988.69;5087043;28;20295;-68
2020/12/13 09:01:06;;;;;;;12.85;7.10;;;;;;;8.62;89.45;98996.28;5072799;28;20192;-68
2020/12/13 09:03:32;;;;;;;11.27;6.50;;;;;;;8.75;88.04;98994.56;5073807;28;20192;-67
2020/12/13 09:05:58;;;;;;;15.95;7.25;;;;;;;8.65;88.14;99001.47;5072317;28;20277;-67
2020/12/13 09:08:24;;;;;;;12.38;6.80;;;;;;;8.41;88.18;98998.41;5072892;28;20192;-67
2020/12/13 09:10:52;;;;;;;11.07;7.72;;;;;;;8.16;90.36;99002.47;5091191;28;20196;-67
2020/12/13 09:13:18;;;;;;;12.25;7.00;;;;;;;8.21;91.10;99002.22;5092898;28;20189;-68
2020/12/13 09:15:44;;;;;;;13.57;7.85;;;;;;;8.32;90.93;99002.44;5090822;28;20550;-68
2020/12/13 09:18:11;;;;;;;11.68;7.93;;;;;;;8.35;90.08;99007.66;5072664;28;20311;-68
2020/12/13 09:20:38;;;;;;;11.93;7.05;;;;;;;8.43;89.06;99016.13;5072724;28;20265;-67
2020/12/13 09:23:05;;;;;;;13.20;7.35;;;;;;;8.63;88.73;99024.84;5072785;28;20291;-68
2020/12/13 09:25:36;;;;;;;11.85;7.30;;;;;;;8.65;88.25;99029.16;5075145;28;20268;-67
2020/12/13 09:28:03;;;;;;;11.75;8.15;;;;;;;8.51;88.53;99021.94;5072680;28;20516;-68
2020/12/13 09:30:29;;;;;;;8.25;7.35;;;;;;;8.33;90.19;99029.19;5080604;28;20652;-67
2020/12/13 09:32:55;;;;;;;8.10;5.05;;;;;;;8.14;89.53;99034.75;5092605;28;20636;-68
2020/12/13 09:35:22;;;;;;;7.30;5.65;;;;;;;7.83;90.31;99034.78;5089958;28;20216;-67
2020/12/13 09:38:03;;;;;;;8.23;5.80;;;;;;;7.82;90.75;99038.38;5092405;28;20239;-67
2020/12/13 09:40:32;;;;;;;10.20;7.32;;;;;;;7.93;91.23;99042.19;5049949;28;20198;-67
2020/12/13 09:42:59;;;;;;;10.63;7.78;;;;;;;8.12;90.38;99043.84;5050217;28;20882;-68
2020/12/13 09:45:25;;;;;;;17.38;7.88;;;;;;;8.33;90.09;99045.28;5045432;28;20308;-68
2020/12/13 09:47:55;;;;;;;10.43;6.18;;;;;;;8.16;89.11;99042.69;5039042;28;20186;-67
2020/12/13 09:50:22;;;;;;;12.90;6.85;;;;;;;8.21;88.33;99046.00;5030052;28;20186;-67
2020/12/13 09:52:48;;;;;;;15.68;7.28;;;;;;;8.30;88.82;99047.31;5029655;28;20197;-67
2020/12/13 09:55:14;;;;;;;10.93;6.50;;;;;;;8.47;87.12;99049.03;5032397;28;20194;-68
2020/12/13 09:57:41;;;;;;;14.00;7.72;;;;;;;8.44;87.88;99052.75;5049265;28;20312;-68
2020/12/13 10:00:07;;;;;;;9.75;6.70;;;;;;;8.50;86.96;99048.84;5049308;28;20335;-67
2020/12/13 10:02:33;;;;;;;16.48;8.45;;;;;;;8.62;86.06;99045.44;5046108;28;20758;-67
2020/12/13 10:05:01;;;;;;;10.88;5.72;;;;;;;8.64;84.00;99048.03;5020968;28;20241;-68
2020/12/13 10:10:15;;;;;;;9.55;6.40;;;;;;;8.77;80.94;99060.66;5028182;28;20640;-68
2020/12/13 10:12:41;;;;;;;11.40;7.30;;;;;;;8.61;81.72;99056.25;5029701;28;20202;-67
2020/12/13 10:15:08;;;;;;;10.77;5.88;;;;;;;8.45;81.80;99054.47;5032421;28;20284;-67
2020/12/13 10:17:34;;;;;;;11.55;6.55;;;;;;;8.62;81.35;99056.19;5052371;28;20203;-68
2020/12/13 10:20:00;;;;;;;10.93;6.47;;;;;;;8.67;81.36;99054.09;5071821;28;20273;-67
2020/12/13 10:22:26;;;;;;;11.00;7.72;;;;;;;8.56;82.96;99059.22;5071917;28;20637;-66
2020/12/13 10:24:53;;;;;;;13.93;7.63;;;;;;;8.44;83.16;99052.75;5080781;28;20196;-66
2020/12/13 10:27:19;;;;;;;14.43;7.18;;;;;;;8.81;81.87;99061.31;5079566;28;20276;-67
2020/12/13 10:29:45;;;;;;;18.02;7.20;;;;;;;8.76;81.46;99055.38;5071877;28;20181;-67
2020/12/13 10:32:11;;;;;;;14.23;7.53;;;;;;;8.67;81.58;99050.56;5082306;28;20196;-67
2020/12/13 10:34:38;;;;;;;12.10;8.52;;;;;;;8.65;83.09;99055.13;5087437;28;20597;-67
2020/12/13 10:37:04;;;;;;;9.73;6.10;;;;;;;8.70;80.54;99042.31;5071494;28;20247;-66
2020/12/13 10:39:30;;;;;;;16.85;7.78;;;;;;;8.67;79.69;99047.88;5077703;28;20283;-66
2020/12/13 10:41:57;;;;;;;11.40;6.43;;;;;;;8.66;79.47;99038.06;5092165;28;20182;-67
2020/12/13 10:44:23;;;;;;;10.02;5.85;;;;;;;8.77;78.75;99044.56;5091433;28;20235;-68
2020/12/13 10:46:49;;;;;;;11.52;5.70;;;;;;;8.81;78.08;99045.22;5091707;28;20186;-68
2020/12/13 10:49:16;;;;;;;11.90;5.72;;;;;;;8.77;78.25;99055.28;5088950;28;20198;-67
2020/12/13 10:51:42;;;;;;;7.50;6.07;;;;;;;8.97;76.54;99037.97;5071613;28;20532;-67
2020/12/13 10:54:09;;;;;;;10.05;5.55;;;;;;;8.76;78.18;99047.31;5071266;28;20222;-67
2020/12/13 10:56:36;;;;;;;13.43;6.63;;;;;;;8.80;78.44;99045.31;5083925;28;20197;-67
2020/12/13 10:59:03;;;;;;;10.25;5.95;;;;;;;8.92;77.08;99058.84;5071124;28;20230;-67
2020/12/13 11:01:29;;;;;;;11.13;6.93;;;;;;;8.84;77.87;99052.22;5071477;28;20205;-67
2020/12/13 11:03:55;;;;;;;12.82;5.45;;;;;;;9.13;75.94;99051.31;5077413;28;20198;-67
2020/12/13 11:06:22;;;;;;;12.25;5.70;;;;;;;9.15;75.14;99049.41;5078100;28;20281;-68
2020/12/13 11:08:48;;;;;;;8.95;6.00;;;;;;;9.03;76.10;99050.16;5071732;28;20253;-68
2020/12/13 11:11:15;;;;;;;11.02;5.80;;;;;;;9.20;74.75;99051.81;5087129;28;20204;-67
2020/12/13 11:13:42;;;;;;;8.50;5.85;;;;;;;9.19;74.26;99058.16;5078755;28;20267;-69
2020/12/13 11:16:10;;;;;;;8.90;5.18;;;;;;;8.77;75.73;99054.41;5075127;28;20643;-68
2020/12/13 11:18:36;;;;;;;10.32;6.10;;;;;;;8.58;77.01;99048.41;5071162;28;20610;-68
2020/12/13 11:21:03;;;;;;;12.20;6.65;;;;;;;8.52;77.58;99058.56;5072447;28;20295;-67
2020/12/13 11:23:30;;;;;;;8.30;5.40;;;;;;;8.63;77.17;99049.84;5076953;28;20205;-68
2020/12/13 11:25:56;;;;;;;8.65;5.47;;;;;;;8.64;77.50;99054.28;5076094;28;20241;-68
2020/12/13 11:28:23;;;;;;;6.13;4.80;;;;;;;8.55;77.86;99060.19;5094821;28;20200;-67
2020/12/13 11:30:49;;;;;;;9.20;4.72;;;;;;;8.39;78.67;99049.44;5080045;28;20202;-68
2020/12/13 11:33:16;;;;;;;8.73;5.68;;;;;;;8.33;78.73;99055.16;5074671;28;20238;-67
2020/12/13 11:35:43;;;;;;;7.32;5.65;;;;;;;8.41;79.02;99052.06;5074039;28;20208;-67
2020/12/13 11:38:10;;;;;;;15.25;6.97;;;;;;;8.58;78.60;99054.63;5076857;28;20251;-68